sensor_id;sensor_type;location;lat;lon;timestamp;P1;durP1;ratioP1;P2;durP2;ratioP2
2438;SDS011;14509;47.992;7.848;2023-06-26T00:00:57;6.65;;;5.90;;
2438;SDS011;14509;47.992;7.848;2023-06-26T00:02:59;6.23;;;5.47;;
2438;SDS011;14509;47.992;7.848;2023-06-26T00:05:01;7.50;;;6.00;;
2438;SDS011;14509;47.992;7.848;2023-06-26T00:07:07;6.67;;;5.33;;
2438;SDS011;14509;47.992;7.848;2023-06-26T00:09:09;6.70;;;5.77;;
2438;SDS011;14509;47.992;7.848;2023-06-26T00:11:12;6.20;;;5.70;;
2438;SDS011;14509;47.992;7.848;2023-06-26T00:13:14;7.77;;;5.50;;
2438;SDS011;14509;47.992;7.848;2023-06-26T00:15:17;6.90;;;5.23;;
2438;SDS011;14509;47.992;7.848;2023-06-26T00:17:19;5.63;;;4.97;;
2438;SDS011;14509;47.992;7.848;2023-06-26T00:19:21;6.37;;;5.77;;
2438;SDS011;14509;47.992;7.848;2023-06-26T00:21:23;9.13;;;6.23;;
2438;SDS011;14509;47.992;7.848;2023-06-26T00:23:25;9.23;;;5.20;;
2438;SDS011;14509;47.992;7.848;2023-06-26T00:25:27;6.47;;;5.70;;
2438;SDS011;14509;47.992;7.848;2023-06-26T00:27:29;6.30;;;5.47;;
2438;SDS011;14509;47.992;7.848;2023-06-26T00:29:31;5.40;;;4.90;;
2438;SDS011;14509;47.992;7.848;2023-06-26T00:31:34;6.23;;;5.23;;
2438;SDS011;14509;47.992;7.848;2023-06-26T00:33:38;5.73;;;4.83;;
2438;SDS011;14509;47.992;7.848;2023-06-26T00:35:40;7.10;;;5.43;;
2438;SDS011;14509;47.992;7.848;2023-06-26T00:37:45;6.60;;;5.60;;
2438;SDS011;14509;47.992;7.848;2023-06-26T00:39:47;6.73;;;6.03;;
2438;SDS011;14509;47.992;7.848;2023-06-26T00:41:49;7.63;;;5.73;;
2438;SDS011;14509;47.992;7.848;2023-06-26T00:43:52;7.70;;;5.77;;
2438;SDS011;14509;47.992;7.848;2023-06-26T00:45:54;5.80;;;5.20;;
2438;SDS011;14509;47.992;7.848;2023-06-26T00:47:57;5.20;;;4.67;;
2438;SDS011;14509;47.992;7.848;2023-06-26T00:50:00;6.17;;;5.67;;
2438;SDS011;14509;47.992;7.848;2023-06-26T00:52:03;6.67;;;5.40;;
2438;SDS011;14509;47.992;7.848;2023-06-26T00:54:05;6.07;;;4.77;;
2438;SDS011;14509;47.992;7.848;2023-06-26T00:56:08;6.93;;;5.50;;
2438;SDS011;14509;47.992;7.848;2023-06-26T00:58:10;7.90;;;5.53;;
2438;SDS011;14509;47.992;7.848;2023-06-26T01:00:13;5.37;;;4.80;;
2438;SDS011;14509;47.992;7.848;2023-06-26T01:02:18;5.93;;;5.30;;
2438;SDS011;14509;47.992;7.848;2023-06-26T01:04:22;5.90;;;5.30;;
2438;SDS011;14509;47.992;7.848;2023-06-26T01:06:27;5.20;;;4.53;;
2438;SDS011;14509;47.992;7.848;2023-06-26T01:08:31;5.10;;;4.60;;
2438;SDS011;14509;47.992;7.848;2023-06-26T01:10:34;7.60;;;5.33;;
2438;SDS011;14509;47.992;7.848;2023-06-26T01:12:35;8.03;;;5.67;;
2438;SDS011;14509;47.992;7.848;2023-06-26T01:14:39;6.20;;;4.77;;
2438;SDS011;14509;47.992;7.848;2023-06-26T01:16:41;5.90;;;5.30;;
2438;SDS011;14509;47.992;7.848;2023-06-26T01:18:47;7.80;;;5.20;;
2438;SDS011;14509;47.992;7.848;2023-06-26T01:20:51;5.63;;;5.13;;
2438;SDS011;14509;47.992;7.848;2023-06-26T01:22:56;6.87;;;5.30;;
2438;SDS011;14509;47.992;7.848;2023-06-26T01:25:09;6.57;;;5.20;;
2438;SDS011;14509;47.992;7.848;2023-06-26T01:27:20;5.30;;;4.67;;
2438;SDS011;14509;47.992;7.848;2023-06-26T01:29:23;7.60;;;5.43;;
2438;SDS011;14509;47.992;7.848;2023-06-26T01:31:27;8.20;;;5.53;;
2438;SDS011;14509;47.992;7.848;2023-06-26T01:33:31;5.83;;;4.60;;
2438;SDS011;14509;47.992;7.848;2023-06-26T01:35:34;5.50;;;4.57;;
2438;SDS011;14509;47.992;7.848;2023-06-26T01:37:39;5.53;;;4.93;;
2438;SDS011;14509;47.992;7.848;2023-06-26T01:39:42;6.90;;;5.80;;
2438;SDS011;14509;47.992;7.848;2023-06-26T01:41:45;6.73;;;5.87;;
2438;SDS011;14509;47.992;7.848;2023-06-26T01:43:56;7.23;;;5.03;;
2438;SDS011;14509;47.992;7.848;2023-06-26T01:46:09;6.90;;;6.30;;
2438;SDS011;14509;47.992;7.848;2023-06-26T01:48:15;8.23;;;6.17;;
2438;SDS011;14509;47.992;7.848;2023-06-26T01:50:22;7.40;;;5.30;;
2438;SDS011;14509;47.992;7.848;2023-06-26T01:52:29;6.67;;;5.10;;
2438;SDS011;14509;47.992;7.848;2023-06-26T01:54:42;7.30;;;5.70;;
2438;SDS011;14509;47.992;7.848;2023-06-26T01:56:52;6.90;;;5.60;;
2438;SDS011;14509;47.992;7.848;2023-06-26T01:58:57;7.27;;;6.07;;
2438;SDS011;14509;47.992;7.848;2023-06-26T02:01:01;7.07;;;5.27;;
2438;SDS011;14509;47.992;7.848;2023-06-26T02:03:03;5.90;;;5.30;;
2438;SDS011;14509;47.992;7.848;2023-06-26T02:05:06;7.33;;;6.10;;
2438;SDS011;14509;47.992;7.848;2023-06-26T02:07:09;6.17;;;5.50;;
2438;SDS011;14509;47.992;7.848;2023-06-26T02:09:11;6.43;;;5.80;;
2438;SDS011;14509;47.992;7.848;2023-06-26T02:11:13;5.80;;;5.30;;
2438;SDS011;14509;47.992;7.848;2023-06-26T02:13:15;5.20;;;4.37;;
2438;SDS011;14509;47.992;7.848;2023-06-26T02:15:19;6.43;;;5.23;;
2438;SDS011;14509;47.992;7.848;2023-06-26T02:17:21;6.70;;;4.30;;
2438;SDS011;14509;47.992;7.848;2023-06-26T02:19:23;7.10;;;5.67;;
2438;SDS011;14509;47.992;7.848;2023-06-26T02:21:25;6.20;;;5.60;;
2438;SDS011;14509;47.992;7.848;2023-06-26T02:23:30;5.00;;;4.50;;
2438;SDS011;14509;47.992;7.848;2023-06-26T02:25:32;5.60;;;5.10;;
2438;SDS011;14509;47.992;7.848;2023-06-26T02:27:34;7.63;;;6.27;;
2438;SDS011;14509;47.992;7.848;2023-06-26T02:29:36;5.60;;;4.80;;
2438;SDS011;14509;47.992;7.848;2023-06-26T02:31:42;6.07;;;4.60;;
2438;SDS011;14509;47.992;7.848;2023-06-26T02:33:44;7.30;;;5.90;;
2438;SDS011;14509;47.992;7.848;2023-06-26T02:35:46;6.60;;;4.83;;
2438;SDS011;14509;47.992;7.848;2023-06-26T02:37:50;6.57;;;5.03;;
2438;SDS011;14509;47.992;7.848;2023-06-26T02:39:52;5.87;;;5.27;;
2438;SDS011;14509;47.992;7.848;2023-06-26T02:41:54;6.70;;;4.77;;
2438;SDS011;14509;47.992;7.848;2023-06-26T02:43:57;8.00;;;5.77;;
2438;SDS011;14509;47.992;7.848;2023-06-26T02:46:00;6.20;;;5.57;;
2438;SDS011;14509;47.992;7.848;2023-06-26T02:48:04;9.37;;;5.53;;
2438;SDS011;14509;47.992;7.848;2023-06-26T02:50:07;7.30;;;6.07;;
2438;SDS011;14509;47.992;7.848;2023-06-26T02:52:33;6.47;;;5.13;;
2438;SDS011;14509;47.992;7.848;2023-06-26T02:54:36;7.13;;;5.80;;
2438;SDS011;14509;47.992;7.848;2023-06-26T02:56:39;6.43;;;4.83;;
2438;SDS011;14509;47.992;7.848;2023-06-26T02:58:41;6.80;;;5.63;;
2438;SDS011;14509;47.992;7.848;2023-06-26T03:00:44;5.63;;;4.80;;
2438;SDS011;14509;47.992;7.848;2023-06-26T03:02:50;7.33;;;6.50;;
2438;SDS011;14509;47.992;7.848;2023-06-26T03:04:55;7.83;;;6.43;;
2438;SDS011;14509;47.992;7.848;2023-06-26T03:06:57;5.23;;;4.60;;
2438;SDS011;14509;47.992;7.848;2023-06-26T03:08:59;6.47;;;5.73;;
2438;SDS011;14509;47.992;7.848;2023-06-26T03:11:02;7.10;;;5.27;;
2438;SDS011;14509;47.992;7.848;2023-06-26T03:13:04;5.60;;;5.00;;
2438;SDS011;14509;47.992;7.848;2023-06-26T03:15:07;8.17;;;6.73;;
2438;SDS011;14509;47.992;7.848;2023-06-26T03:17:09;7.60;;;5.60;;
2438;SDS011;14509;47.992;7.848;2023-06-26T03:19:13;7.23;;;5.33;;
2438;SDS011;14509;47.992;7.848;2023-06-26T03:21:40;5.97;;;5.37;;
2438;SDS011;14509;47.992;7.848;2023-06-26T03:23:42;5.90;;;5.17;;
2438;SDS011;14509;47.992;7.848;2023-06-26T03:25:45;6.87;;;5.50;;
2438;SDS011;14509;47.992;7.848;2023-06-26T03:27:57;5.83;;;5.20;;
2438;SDS011;14509;47.992;7.848;2023-06-26T03:30:00;6.53;;;5.47;;
2438;SDS011;14509;47.992;7.848;2023-06-26T03:32:03;6.13;;;5.50;;
2438;SDS011;14509;47.992;7.848;2023-06-26T03:34:05;5.77;;;5.30;;
2438;SDS011;14509;47.992;7.848;2023-06-26T03:36:07;7.07;;;5.70;;
2438;SDS011;14509;47.992;7.848;2023-06-26T03:38:11;9.90;;;5.60;;
2438;SDS011;14509;47.992;7.848;2023-06-26T03:40:14;7.33;;;5.97;;
2438;SDS011;14509;47.992;7.848;2023-06-26T03:42:16;6.03;;;5.43;;
2438;SDS011;14509;47.992;7.848;2023-06-26T03:44:18;6.20;;;5.60;;
2438;SDS011;14509;47.992;7.848;2023-06-26T03:46:24;6.10;;;5.23;;
2438;SDS011;14509;47.992;7.848;2023-06-26T03:48:25;5.37;;;4.87;;
2438;SDS011;14509;47.992;7.848;2023-06-26T03:50:28;6.77;;;6.03;;
2438;SDS011;14509;47.992;7.848;2023-06-26T03:52:31;6.03;;;4.90;;
2438;SDS011;14509;47.992;7.848;2023-06-26T03:54:34;5.77;;;5.17;;
2438;SDS011;14509;47.992;7.848;2023-06-26T03:56:36;6.80;;;5.20;;
2438;SDS011;14509;47.992;7.848;2023-06-26T03:58:39;5.83;;;4.77;;
2438;SDS011;14509;47.992;7.848;2023-06-26T04:00:41;7.13;;;5.50;;
2438;SDS011;14509;47.992;7.848;2023-06-26T04:02:43;6.33;;;5.67;;
2438;SDS011;14509;47.992;7.848;2023-06-26T04:04:46;9.43;;;6.70;;
2438;SDS011;14509;47.992;7.848;2023-06-26T04:06:48;7.27;;;6.00;;
2438;SDS011;14509;47.992;7.848;2023-06-26T04:08:50;9.67;;;6.10;;
2438;SDS011;14509;47.992;7.848;2023-06-26T04:10:54;5.83;;;5.17;;
2438;SDS011;14509;47.992;7.848;2023-06-26T04:12:57;8.13;;;4.67;;
2438;SDS011;14509;47.992;7.848;2023-06-26T04:14:59;10.33;;;5.97;;
2438;SDS011;14509;47.992;7.848;2023-06-26T04:17:01;6.07;;;5.47;;
2438;SDS011;14509;47.992;7.848;2023-06-26T04:19:03;6.33;;;5.70;;
2438;SDS011;14509;47.992;7.848;2023-06-26T04:21:09;6.43;;;5.80;;
2438;SDS011;14509;47.992;7.848;2023-06-26T04:23:12;6.00;;;5.40;;
2438;SDS011;14509;47.992;7.848;2023-06-26T04:25:14;5.70;;;5.20;;
2438;SDS011;14509;47.992;7.848;2023-06-26T04:27:17;5.83;;;5.20;;
2438;SDS011;14509;47.992;7.848;2023-06-26T04:29:19;6.37;;;5.77;;
2438;SDS011;14509;47.992;7.848;2023-06-26T04:31:21;5.03;;;4.53;;
2438;SDS011;14509;47.992;7.848;2023-06-26T04:33:23;7.60;;;5.13;;
2438;SDS011;14509;47.992;7.848;2023-06-26T04:35:25;5.93;;;5.33;;
2438;SDS011;14509;47.992;7.848;2023-06-26T04:37:27;8.03;;;5.37;;
2438;SDS011;14509;47.992;7.848;2023-06-26T04:39:29;8.90;;;6.10;;
2438;SDS011;14509;47.992;7.848;2023-06-26T04:41:31;5.50;;;4.83;;
2438;SDS011;14509;47.992;7.848;2023-06-26T04:43:34;6.30;;;5.70;;
2438;SDS011;14509;47.992;7.848;2023-06-26T04:45:36;10.70;;;5.77;;
2438;SDS011;14509;47.992;7.848;2023-06-26T04:47:38;7.70;;;6.20;;
2438;SDS011;14509;47.992;7.848;2023-06-26T04:49:40;6.60;;;5.73;;
2438;SDS011;14509;47.992;7.848;2023-06-26T04:51:46;7.77;;;5.97;;
2438;SDS011;14509;47.992;7.848;2023-06-26T04:53:48;7.30;;;5.60;;
2438;SDS011;14509;47.992;7.848;2023-06-26T04:55:50;7.53;;;6.23;;
2438;SDS011;14509;47.992;7.848;2023-06-26T04:57:52;5.83;;;5.03;;
2438;SDS011;14509;47.992;7.848;2023-06-26T04:59:56;5.90;;;5.30;;
2438;SDS011;14509;47.992;7.848;2023-06-26T05:01:58;6.87;;;5.40;;
2438;SDS011;14509;47.992;7.848;2023-06-26T05:04:00;6.30;;;5.00;;
2438;SDS011;14509;47.992;7.848;2023-06-26T05:06:02;6.63;;;5.90;;
2438;SDS011;14509;47.992;7.848;2023-06-26T05:08:13;6.77;;;6.10;;
2438;SDS011;14509;47.992;7.848;2023-06-26T05:10:16;7.37;;;6.00;;
2438;SDS011;14509;47.992;7.848;2023-06-26T05:12:18;5.87;;;4.70;;
2438;SDS011;14509;47.992;7.848;2023-06-26T05:14:20;5.83;;;5.33;;
2438;SDS011;14509;47.992;7.848;2023-06-26T05:16:23;7.20;;;5.87;;
2438;SDS011;14509;47.992;7.848;2023-06-26T05:18:25;6.10;;;5.17;;
2438;SDS011;14509;47.992;7.848;2023-06-26T05:20:27;6.70;;;5.00;;
2438;SDS011;14509;47.992;7.848;2023-06-26T05:22:29;7.20;;;6.27;;
2438;SDS011;14509;47.992;7.848;2023-06-26T05:24:31;6.03;;;5.40;;
2438;SDS011;14509;47.992;7.848;2023-06-26T05:26:34;6.50;;;5.40;;
2438;SDS011;14509;47.992;7.848;2023-06-26T05:28:36;6.20;;;5.30;;
2438;SDS011;14509;47.992;7.848;2023-06-26T05:30:39;9.37;;;5.33;;
2438;SDS011;14509;47.992;7.848;2023-06-26T05:32:42;5.47;;;5.00;;
2438;SDS011;14509;47.992;7.848;2023-06-26T05:34:46;6.20;;;5.60;;
2438;SDS011;14509;47.992;7.848;2023-06-26T05:36:49;6.87;;;5.53;;
2438;SDS011;14509;47.992;7.848;2023-06-26T05:38:52;7.47;;;6.47;;
2438;SDS011;14509;47.992;7.848;2023-06-26T05:40:56;6.50;;;5.90;;
2438;SDS011;14509;47.992;7.848;2023-06-26T05:42:59;7.43;;;6.07;;
2438;SDS011;14509;47.992;7.848;2023-06-26T05:45:01;9.27;;;6.57;;
2438;SDS011;14509;47.992;7.848;2023-06-26T05:47:03;9.70;;;5.80;;
2438;SDS011;14509;47.992;7.848;2023-06-26T05:49:06;7.20;;;5.90;;
2438;SDS011;14509;47.992;7.848;2023-06-26T05:51:08;6.67;;;5.90;;
2438;SDS011;14509;47.992;7.848;2023-06-26T05:53:11;7.73;;;5.83;;
2438;SDS011;14509;47.992;7.848;2023-06-26T05:55:13;5.30;;;4.80;;
2438;SDS011;14509;47.992;7.848;2023-06-26T05:57:15;7.13;;;6.43;;
2438;SDS011;14509;47.992;7.848;2023-06-26T05:59:18;6.30;;;5.57;;
2438;SDS011;14509;47.992;7.848;2023-06-26T06:01:20;5.47;;;4.70;;
2438;SDS011;14509;47.992;7.848;2023-06-26T06:03:22;8.83;;;5.60;;
2438;SDS011;14509;47.992;7.848;2023-06-26T06:05:26;6.70;;;5.97;;
2438;SDS011;14509;47.992;7.848;2023-06-26T06:07:28;6.97;;;6.27;;
2438;SDS011;14509;47.992;7.848;2023-06-26T06:09:30;8.57;;;7.67;;
2438;SDS011;14509;47.992;7.848;2023-06-26T06:11:31;9.67;;;5.80;;
2438;SDS011;14509;47.992;7.848;2023-06-26T06:13:33;9.23;;;6.67;;
2438;SDS011;14509;47.992;7.848;2023-06-26T06:15:35;6.40;;;5.63;;
2438;SDS011;14509;47.992;7.848;2023-06-26T06:17:37;9.27;;;7.00;;
2438;SDS011;14509;47.992;7.848;2023-06-26T06:19:39;8.53;;;6.90;;
2438;SDS011;14509;47.992;7.848;2023-06-26T06:21:42;7.90;;;6.07;;
2438;SDS011;14509;47.992;7.848;2023-06-26T06:23:44;7.50;;;6.20;;
2438;SDS011;14509;47.992;7.848;2023-06-26T06:25:46;8.83;;;6.10;;
2438;SDS011;14509;47.992;7.848;2023-06-26T06:27:48;10.70;;;7.20;;
2438;SDS011;14509;47.992;7.848;2023-06-26T06:29:50;6.50;;;5.80;;
2438;SDS011;14509;47.992;7.848;2023-06-26T06:31:52;8.83;;;6.00;;
2438;SDS011;14509;47.992;7.848;2023-06-26T06:33:53;9.57;;;5.23;;
2438;SDS011;14509;47.992;7.848;2023-06-26T06:35:55;10.03;;;6.80;;
2438;SDS011;14509;47.992;7.848;2023-06-26T06:37:59;9.63;;;6.50;;
2438;SDS011;14509;47.992;7.848;2023-06-26T06:40:01;5.93;;;5.33;;
2438;SDS011;14509;47.992;7.848;2023-06-26T06:42:04;8.70;;;6.23;;
2438;SDS011;14509;47.992;7.848;2023-06-26T06:44:06;6.73;;;6.03;;
2438;SDS011;14509;47.992;7.848;2023-06-26T06:46:09;6.90;;;6.10;;
2438;SDS011;14509;47.992;7.848;2023-06-26T06:48:11;6.43;;;5.83;;
2438;SDS011;14509;47.992;7.848;2023-06-26T06:50:13;7.67;;;5.80;;
2438;SDS011;14509;47.992;7.848;2023-06-26T06:52:16;7.40;;;5.23;;
2438;SDS011;14509;47.992;7.848;2023-06-26T06:54:19;6.10;;;5.50;;
2438;SDS011;14509;47.992;7.848;2023-06-26T06:56:21;7.33;;;6.30;;
2438;SDS011;14509;47.992;7.848;2023-06-26T06:58:23;8.03;;;6.90;;
2438;SDS011;14509;47.992;7.848;2023-06-26T07:00:25;7.67;;;6.00;;
2438;SDS011;14509;47.992;7.848;2023-06-26T07:02:27;13.80;;;7.10;;
2438;SDS011;14509;47.992;7.848;2023-06-26T07:04:29;6.67;;;5.87;;
2438;SDS011;14509;47.992;7.848;2023-06-26T07:06:30;15.63;;;6.73;;
2438;SDS011;14509;47.992;7.848;2023-06-26T07:08:32;10.10;;;6.07;;
2438;SDS011;14509;47.992;7.848;2023-06-26T07:10:36;7.43;;;5.23;;
2438;SDS011;14509;47.992;7.848;2023-06-26T07:12:38;6.17;;;5.53;;
2438;SDS011;14509;47.992;7.848;2023-06-26T07:14:40;7.30;;;6.23;;
2438;SDS011;14509;47.992;7.848;2023-06-26T07:16:42;5.37;;;4.87;;
2438;SDS011;14509;47.992;7.848;2023-06-26T07:18:44;6.83;;;6.13;;
2438;SDS011;14509;47.992;7.848;2023-06-26T07:20:46;6.87;;;6.27;;
2438;SDS011;14509;47.992;7.848;2023-06-26T07:22:48;6.30;;;5.70;;
2438;SDS011;14509;47.992;7.848;2023-06-26T07:24:51;8.03;;;5.20;;
2438;SDS011;14509;47.992;7.848;2023-06-26T07:26:55;7.30;;;6.57;;
2438;SDS011;14509;47.992;7.848;2023-06-26T07:28:57;6.90;;;5.77;;
2438;SDS011;14509;47.992;7.848;2023-06-26T07:30:59;7.07;;;5.40;;
2438;SDS011;14509;47.992;7.848;2023-06-26T07:33:01;6.10;;;5.50;;
2438;SDS011;14509;47.992;7.848;2023-06-26T07:35:03;10.23;;;5.57;;
2438;SDS011;14509;47.992;7.848;2023-06-26T07:37:06;5.93;;;5.33;;
2438;SDS011;14509;47.992;7.848;2023-06-26T07:39:08;8.03;;;5.13;;
2438;SDS011;14509;47.992;7.848;2023-06-26T07:41:10;6.87;;;6.20;;
2438;SDS011;14509;47.992;7.848;2023-06-26T07:43:13;6.00;;;5.40;;
2438;SDS011;14509;47.992;7.848;2023-06-26T07:45:18;6.83;;;5.53;;
2438;SDS011;14509;47.992;7.848;2023-06-26T07:47:20;6.40;;;5.40;;
2438;SDS011;14509;47.992;7.848;2023-06-26T07:49:25;6.10;;;5.50;;
2438;SDS011;14509;47.992;7.848;2023-06-26T07:51:27;6.60;;;5.43;;
2438;SDS011;14509;47.992;7.848;2023-06-26T07:53:29;6.03;;;5.43;;
2438;SDS011;14509;47.992;7.848;2023-06-26T07:55:31;11.10;;;6.30;;
2438;SDS011;14509;47.992;7.848;2023-06-26T07:57:33;6.00;;;5.40;;
2438;SDS011;14509;47.992;7.848;2023-06-26T07:59:36;6.93;;;6.33;;
2438;SDS011;14509;47.992;7.848;2023-06-26T08:01:39;8.00;;;6.50;;
2438;SDS011;14509;47.992;7.848;2023-06-26T08:03:41;6.47;;;5.83;;
2438;SDS011;14509;47.992;7.848;2023-06-26T08:05:43;5.53;;;5.13;;
2438;SDS011;14509;47.992;7.848;2023-06-26T08:07:45;6.33;;;5.70;;
2438;SDS011;14509;47.992;7.848;2023-06-26T08:09:47;5.60;;;5.10;;
2438;SDS011;14509;47.992;7.848;2023-06-26T08:11:49;7.23;;;6.50;;
2438;SDS011;14509;47.992;7.848;2023-06-26T08:13:51;6.20;;;5.30;;
2438;SDS011;14509;47.992;7.848;2023-06-26T08:15:54;8.37;;;6.03;;
2438;SDS011;14509;47.992;7.848;2023-06-26T08:17:56;6.83;;;5.67;;
2438;SDS011;14509;47.992;7.848;2023-06-26T08:20:00;9.53;;;6.03;;
2438;SDS011;14509;47.992;7.848;2023-06-26T08:22:02;6.33;;;5.80;;
2438;SDS011;14509;47.992;7.848;2023-06-26T08:24:04;8.00;;;5.90;;
2438;SDS011;14509;47.992;7.848;2023-06-26T08:26:07;7.67;;;6.17;;
2438;SDS011;14509;47.992;7.848;2023-06-26T08:28:09;6.17;;;5.57;;
2438;SDS011;14509;47.992;7.848;2023-06-26T08:30:11;6.30;;;5.70;;
2438;SDS011;14509;47.992;7.848;2023-06-26T08:32:14;7.17;;;6.50;;
2438;SDS011;14509;47.992;7.848;2023-06-26T08:34:16;7.03;;;5.80;;
2438;SDS011;14509;47.992;7.848;2023-06-26T08:36:18;7.40;;;6.40;;
2438;SDS011;14509;47.992;7.848;2023-06-26T08:38:20;6.47;;;5.77;;
2438;SDS011;14509;47.992;7.848;2023-06-26T08:40:22;6.10;;;5.60;;
2438;SDS011;14509;47.992;7.848;2023-06-26T08:42:24;7.63;;;6.03;;
2438;SDS011;14509;47.992;7.848;2023-06-26T08:44:26;7.47;;;6.77;;
2438;SDS011;14509;47.992;7.848;2023-06-26T08:46:28;6.57;;;5.97;;
2438;SDS011;14509;47.992;7.848;2023-06-26T08:48:33;7.60;;;6.50;;
2438;SDS011;14509;47.992;7.848;2023-06-26T08:50:36;7.13;;;6.43;;
2438;SDS011;14509;47.992;7.848;2023-06-26T08:52:41;7.03;;;6.33;;
2438;SDS011;14509;47.992;7.848;2023-06-26T08:54:48;6.90;;;6.20;;
2438;SDS011;14509;47.992;7.848;2023-06-26T08:56:55;6.10;;;5.50;;
2438;SDS011;14509;47.992;7.848;2023-06-26T08:58:58;8.10;;;6.23;;
2438;SDS011;14509;47.992;7.848;2023-06-26T09:01:00;6.50;;;5.80;;
2438;SDS011;14509;47.992;7.848;2023-06-26T09:03:03;6.13;;;5.43;;
2438;SDS011;14509;47.992;7.848;2023-06-26T09:05:08;12.83;;;7.30;;
2438;SDS011;14509;47.992;7.848;2023-06-26T09:07:09;6.97;;;6.10;;
2438;SDS011;14509;47.992;7.848;2023-06-26T09:09:11;9.23;;;6.60;;
2438;SDS011;14509;47.992;7.848;2023-06-26T09:11:13;7.70;;;6.93;;
2438;SDS011;14509;47.992;7.848;2023-06-26T09:13:15;6.90;;;6.30;;
2438;SDS011;14509;47.992;7.848;2023-06-26T09:15:19;6.37;;;5.77;;
2438;SDS011;14509;47.992;7.848;2023-06-26T09:17:23;9.17;;;7.10;;
2438;SDS011;14509;47.992;7.848;2023-06-26T09:19:26;7.67;;;5.70;;
2438;SDS011;14509;47.992;7.848;2023-06-26T09:21:29;6.70;;;6.10;;
2438;SDS011;14509;47.992;7.848;2023-06-26T09:23:32;8.03;;;7.23;;
2438;SDS011;14509;47.992;7.848;2023-06-26T09:25:37;7.10;;;6.50;;
2438;SDS011;14509;47.992;7.848;2023-06-26T09:27:42;7.23;;;6.53;;
2438;SDS011;14509;47.992;7.848;2023-06-26T09:29:45;9.27;;;6.50;;
2438;SDS011;14509;47.992;7.848;2023-06-26T09:31:47;6.43;;;5.83;;
2438;SDS011;14509;47.992;7.848;2023-06-26T09:33:49;12.43;;;7.53;;
2438;SDS011;14509;47.992;7.848;2023-06-26T09:35:59;9.60;;;6.53;;
2438;SDS011;14509;47.992;7.848;2023-06-26T09:38:03;7.27;;;6.57;;
2438;SDS011;14509;47.992;7.848;2023-06-26T09:40:06;7.23;;;6.27;;
2438;SDS011;14509;47.992;7.848;2023-06-26T09:42:08;8.00;;;6.33;;
2438;SDS011;14509;47.992;7.848;2023-06-26T09:44:11;9.17;;;7.87;;
2438;SDS011;14509;47.992;7.848;2023-06-26T09:46:15;8.20;;;7.40;;
2438;SDS011;14509;47.992;7.848;2023-06-26T09:48:18;7.10;;;6.40;;
2438;SDS011;14509;47.992;7.848;2023-06-26T09:50:21;7.50;;;6.70;;
2438;SDS011;14509;47.992;7.848;2023-06-26T09:52:25;8.10;;;7.30;;
2438;SDS011;14509;47.992;7.848;2023-06-26T09:54:29;8.97;;;6.87;;
2438;SDS011;14509;47.992;7.848;2023-06-26T12:31:49;6.40;;;5.90;;
2438;SDS011;14509;47.992;7.848;2023-06-26T12:33:51;8.67;;;6.37;;
2438;SDS011;14509;47.992;7.848;2023-06-26T12:35:54;6.10;;;5.60;;
2438;SDS011;14509;47.992;7.848;2023-06-26T12:37:56;7.23;;;5.70;;
2438;SDS011;14509;47.992;7.848;2023-06-26T12:39:58;6.00;;;5.50;;
2438;SDS011;14509;47.992;7.848;2023-06-26T12:42:01;8.60;;;6.07;;
2438;SDS011;14509;47.992;7.848;2023-06-26T12:44:03;11.23;;;6.23;;
2438;SDS011;14509;47.992;7.848;2023-06-26T12:46:07;6.80;;;6.10;;
2438;SDS011;14509;47.992;7.848;2023-06-26T12:48:10;7.97;;;6.53;;
2438;SDS011;14509;47.992;7.848;2023-06-26T12:50:13;6.90;;;6.20;;
2438;SDS011;14509;47.992;7.848;2023-06-26T12:52:17;7.83;;;5.50;;
2438;SDS011;14509;47.992;7.848;2023-06-26T12:54:19;5.07;;;4.57;;
2438;SDS011;14509;47.992;7.848;2023-06-26T12:56:21;6.50;;;5.53;;
2438;SDS011;14509;47.992;7.848;2023-06-26T12:58:23;5.50;;;4.97;;
2438;SDS011;14509;47.992;7.848;2023-06-26T13:00:25;6.10;;;5.50;;
2438;SDS011;14509;47.992;7.848;2023-06-26T13:02:29;8.87;;;5.70;;
2438;SDS011;14509;47.992;7.848;2023-06-26T13:04:31;4.97;;;4.40;;
2438;SDS011;14509;47.992;7.848;2023-06-26T13:06:33;9.13;;;5.53;;
2438;SDS011;14509;47.992;7.848;2023-06-26T13:08:40;6.00;;;5.40;;
2438;SDS011;14509;47.992;7.848;2023-06-26T13:10:43;6.47;;;4.90;;
2438;SDS011;14509;47.992;7.848;2023-06-26T13:12:46;12.53;;;5.90;;
2438;SDS011;14509;47.992;7.848;2023-06-26T13:14:48;5.30;;;4.80;;
2438;SDS011;14509;47.992;7.848;2023-06-26T13:16:52;5.17;;;4.57;;
2438;SDS011;14509;47.992;7.848;2023-06-26T13:18:55;5.83;;;5.13;;
2438;SDS011;14509;47.992;7.848;2023-06-26T13:20:59;5.67;;;3.83;;
2438;SDS011;14509;47.992;7.848;2023-06-26T13:23:01;5.60;;;5.10;;
2438;SDS011;14509;47.992;7.848;2023-06-26T13:25:04;5.50;;;4.80;;
2438;SDS011;14509;47.992;7.848;2023-06-26T13:27:06;4.80;;;4.40;;
2438;SDS011;14509;47.992;7.848;2023-06-26T13:29:08;9.47;;;5.30;;
2438;SDS011;14509;47.992;7.848;2023-06-26T13:31:16;6.77;;;4.97;;
2438;SDS011;14509;47.992;7.848;2023-06-26T14:16:47;5.37;;;4.17;;
2438;SDS011;14509;47.992;7.848;2023-06-26T14:18:50;4.33;;;3.47;;
2438;SDS011;14509;47.992;7.848;2023-06-26T14:20:52;4.30;;;3.87;;
2438;SDS011;14509;47.992;7.848;2023-06-26T14:22:54;6.73;;;3.50;;
2438;SDS011;14509;47.992;7.848;2023-06-26T14:24:58;7.13;;;4.57;;
2438;SDS011;14509;47.992;7.848;2023-06-26T14:27:00;9.50;;;4.07;;
2438;SDS011;14509;47.992;7.848;2023-06-26T14:29:03;4.00;;;3.70;;
2438;SDS011;14509;47.992;7.848;2023-06-26T14:31:05;3.63;;;3.00;;
2438;SDS011;14509;47.992;7.848;2023-06-26T14:33:12;4.47;;;2.70;;
2438;SDS011;14509;47.992;7.848;2023-06-26T14:35:16;4.33;;;3.13;;
2438;SDS011;14509;47.992;7.848;2023-06-26T14:37:18;7.53;;;3.37;;
2438;SDS011;14509;47.992;7.848;2023-06-26T14:39:21;3.43;;;3.13;;
2438;SDS011;14509;47.992;7.848;2023-06-26T14:41:23;3.23;;;2.93;;
2438;SDS011;14509;47.992;7.848;2023-06-26T14:43:25;3.13;;;2.70;;
2438;SDS011;14509;47.992;7.848;2023-06-26T14:45:27;4.63;;;3.47;;
2438;SDS011;14509;47.992;7.848;2023-06-26T14:47:30;9.63;;;3.80;;
2438;SDS011;14509;47.992;7.848;2023-06-26T14:49:33;4.30;;;3.87;;
2438;SDS011;14509;47.992;7.848;2023-06-26T14:51:36;3.40;;;3.10;;
2438;SDS011;14509;47.992;7.848;2023-06-26T14:53:40;3.97;;;2.83;;
2438;SDS011;14509;47.992;7.848;2023-06-26T14:55:42;4.07;;;3.37;;
2438;SDS011;14509;47.992;7.848;2023-06-26T14:57:44;4.33;;;3.60;;
2438;SDS011;14509;47.992;7.848;2023-06-26T14:59:47;7.03;;;4.07;;
2438;SDS011;14509;47.992;7.848;2023-06-26T15:01:54;7.63;;;4.27;;
2438;SDS011;14509;47.992;7.848;2023-06-26T15:03:56;4.73;;;4.10;;
2438;SDS011;14509;47.992;7.848;2023-06-26T15:05:59;5.47;;;4.00;;
2438;SDS011;14509;47.992;7.848;2023-06-26T15:08:02;4.93;;;3.43;;
2438;SDS011;14509;47.992;7.848;2023-06-26T15:10:04;5.50;;;4.10;;
2438;SDS011;14509;47.992;7.848;2023-06-26T15:12:08;4.77;;;3.90;;
2438;SDS011;14509;47.992;7.848;2023-06-26T15:14:10;3.47;;;3.17;;
2438;SDS011;14509;47.992;7.848;2023-06-26T15:16:13;4.47;;;3.60;;
2438;SDS011;14509;47.992;7.848;2023-06-26T15:18:19;4.60;;;3.67;;
2438;SDS011;14509;47.992;7.848;2023-06-26T15:20:21;6.60;;;4.43;;
2438;SDS011;14509;47.992;7.848;2023-06-26T15:22:28;4.10;;;3.50;;
2438;SDS011;14509;47.992;7.848;2023-06-26T16:10:41;7.27;;;6.53;;
2438;SDS011;14509;47.992;7.848;2023-06-26T16:12:43;6.50;;;5.77;;
2438;SDS011;14509;47.992;7.848;2023-06-26T16:14:45;7.13;;;6.23;;
2438;SDS011;14509;47.992;7.848;2023-06-26T16:16:47;9.23;;;7.17;;
2438;SDS011;14509;47.992;7.848;2023-06-26T16:18:49;9.60;;;7.23;;
2438;SDS011;14509;47.992;7.848;2023-06-26T16:20:51;8.83;;;6.97;;
2438;SDS011;14509;47.992;7.848;2023-06-26T16:22:52;9.50;;;6.80;;
2438;SDS011;14509;47.992;7.848;2023-06-26T16:24:55;8.43;;;7.00;;
2438;SDS011;14509;47.992;7.848;2023-06-26T16:26:58;7.87;;;7.17;;
2438;SDS011;14509;47.992;7.848;2023-06-26T16:29:00;8.97;;;7.37;;
2438;SDS011;14509;47.992;7.848;2023-06-26T16:31:02;11.20;;;7.50;;
2438;SDS011;14509;47.992;7.848;2023-06-26T16:33:05;8.47;;;7.03;;
2438;SDS011;14509;47.992;7.848;2023-06-26T16:35:08;9.07;;;7.07;;
2438;SDS011;14509;47.992;7.848;2023-06-26T16:37:09;9.03;;;7.10;;